Time;durP1;ratioP1;P1;durP2;ratioP2;P2;SDS_P1;SDS_P2;PMS_P1;PMS_P2;Temp;Humidity;BMP_temperature;BMP_pressure;BME280_temperature;BME280_humidity;BME280_pressure;Samples;Min_cycle;Max_cycle;Signal;HPM_P1;HPM_P2
2023/08/18 00:02:05;;;;;;;8.20;4.90;;;23.30;74.40;;;;;;5029920;28;20496;-78
2023/08/18 00:04:33;;;;;;;9.13;5.53;;;23.20;74.50;;;;;;5031526;28;20459;-78
2023/08/18 00:07:01;;;;;;;12.37;5.27;;;23.10;74.70;;;;;;5024560;28;21027;-77
2023/08/18 00:09:29;;;;;;;9.33;4.90;;;23.10;74.90;;;;;;5029466;28;20572;-78
2023/08/18 00:11:57;;;;;;;8.13;5.27;;;23.10;75.00;;;;;;5024503;28;20444;-77
2023/08/18 00:14:25;;;;;;;13.30;5.90;;;23.10;75.10;;;;;;5024757;28;20451;-76
2023/08/18 00:16:53;;;;;;;12.40;5.63;;;23.10;75.10;;;;;;5026463;28;20479;-76
2023/08/18 00:19:23;;;;;;;9.40;5.30;;;23.10;75.10;;;;;;5020072;28;20941;-77
2023/08/18 00:21:51;;;;;;;8.27;4.70;;;23.20;75.20;;;;;;5021132;28;20527;-77
2023/08/18 00:24:19;;;;;;;8.93;5.43;;;23.20;75.20;;;;;;5025480;28;20443;-77
2023/08/18 00:26:47;;;;;;;8.10;5.40;;;23.20;75.20;;;;;;5025875;28;20535;-77
2023/08/18 00:29:15;;;;;;;12.00;5.50;;;23.30;75.20;;;;;;5026815;28;20478;-78
2023/08/18 00:31:44;;;;;;;7.67;5.20;;;23.30;75.10;;;;;;5023135;28;20476;-77
2023/08/18 00:34:13;;;;;;;8.37;5.50;;;23.20;75.20;;;;;;5036104;28;20821;-77
2023/08/18 00:36:42;;;;;;;9.50;5.37;;;23.20;75.20;;;;;;5018955;28;20460;-77
2023/08/18 00:39:10;;;;;;;8.10;5.40;;;23.20;75.30;;;;;;5024933;28;20464;-77
2023/08/18 00:41:38;;;;;;;8.80;5.77;;;23.20;75.30;;;;;;5020942;28;20530;-78
2023/08/18 00:44:06;;;;;;;11.03;6.37;;;23.20;75.30;;;;;;5026096;28;21036;-77
2023/08/18 00:46:34;;;;;;;10.57;5.73;;;23.20;75.20;;;;;;5023261;28;20463;-77
2023/08/18 00:49:05;;;;;;;8.60;6.57;;;23.10;75.20;;;;;;5022564;28;20448;-78
2023/08/18 00:51:35;;;;;;;11.70;5.50;;;23.00;75.40;;;;;;5021919;28;20546;-77
2023/08/18 00:54:05;;;;;;;11.23;6.33;;;22.90;75.50;;;;;;5027284;28;20474;-78
2023/08/18 00:56:34;;;;;;;9.40;4.93;;;22.90;75.70;;;;;;5035826;28;20458;-77
2023/08/18 00:59:05;;;;;;;10.90;5.87;;;22.80;75.70;;;;;;5025455;28;20455;-76
2023/08/18 01:01:34;;;;;;;8.23;6.10;;;22.80;75.80;;;;;;5026841;28;20506;-77
2023/08/18 01:04:03;;;;;;;12.03;6.10;;;22.80;75.90;;;;;;5021748;28;20475;-78
2023/08/18 01:06:32;;;;;;;9.60;6.60;;;22.70;75.90;;;;;;5026349;28;20489;-78
2023/08/18 01:09:01;;;;;;;11.40;6.30;;;22.70;75.90;;;;;;5030483;28;20471;-76
2023/08/18 01:11:36;;;;;;;8.20;5.33;;;22.70;76.00;;;;;;5025260;28;20471;-78
2023/08/18 01:14:16;;;;;;;12.00;5.97;;;22.70;76.20;;;;;;5016974;28;20464;-79
2023/08/18 01:16:49;;;;;;;8.00;5.33;;;22.70;76.30;;;;;;5026650;28;20463;-77
2023/08/18 01:19:21;;;;;;;11.30;6.00;;;22.70;76.20;;;;;;5030798;28;20452;-78
2023/08/18 01:21:54;;;;;;;9.00;5.63;;;22.70;76.20;;;;;;5024544;28;20476;-77
2023/08/18 01:24:25;;;;;;;8.70;5.10;;;22.80;76.20;;;;;;5033814;28;20457;-77
2023/08/18 01:26:53;;;;;;;8.23;5.83;;;22.80;76.10;;;;;;5026829;28;20966;-77
2023/08/18 01:29:23;;;;;;;10.70;5.50;;;22.70;76.00;;;;;;5045852;28;20981;-78
2023/08/18 01:31:55;;;;;;;9.87;5.80;;;22.70;75.90;;;;;;5018425;28;21075;-77
2023/08/18 01:34:26;;;;;;;9.10;5.53;;;22.70;75.90;;;;;;5028305;28;20498;-78
2023/08/18 01:36:57;;;;;;;9.80;5.77;;;22.70;75.90;;;;;;5023959;28;20463;-77
2023/08/18 01:39:28;;;;;;;10.37;6.30;;;22.60;76.00;;;;;;5026059;28;20460;-77
2023/08/18 01:41:56;;;;;;;9.67;5.67;;;22.60;76.10;;;;;;5037706;28;20495;-78
2023/08/18 01:44:26;;;;;;;11.73;6.00;;;22.60;76.10;;;;;;5018621;28;20452;-76
2023/08/18 01:46:54;;;;;;;12.33;5.37;;;22.60;76.10;;;;;;5021073;28;20474;-78
2023/08/18 01:49:22;;;;;;;9.53;5.57;;;22.60;76.20;;;;;;5021092;28;20554;-78
2023/08/18 01:51:50;;;;;;;9.33;5.50;;;22.60;76.20;;;;;;5022807;28;20515;-76
2023/08/18 01:54:19;;;;;;;11.87;6.33;;;22.60;76.20;;;;;;5024120;28;20944;-77
2023/08/18 01:56:48;;;;;;;8.50;5.37;;;22.60;76.20;;;;;;5022705;28;21044;-78
2023/08/18 01:59:16;;;;;;;12.13;5.07;;;22.60;76.10;;;;;;5040456;28;21021;-77
2023/08/18 02:01:44;;;;;;;10.20;6.13;;;22.60;76.00;;;;;;5019234;28;20567;-77
2023/08/18 02:04:12;;;;;;;9.23;6.40;;;22.60;75.90;;;;;;5028998;28;20451;-79
2023/08/18 02:06:40;;;;;;;10.13;5.87;;;22.50;76.00;;;;;;5022610;28;20459;-79
2023/08/18 02:09:08;;;;;;;7.90;5.70;;;22.40;76.00;;;;;;5023280;28;20472;-79
2023/08/18 02:11:36;;;;;;;12.33;6.13;;;22.40;76.20;;;;;;5022544;28;20457;-78
2023/08/18 02:14:06;;;;;;;10.47;6.63;;;22.40;76.30;;;;;;5053650;28;20491;-78
2023/08/18 02:16:33;;;;;;;13.93;6.10;;;22.40;76.20;;;;;;5023722;28;20904;-78
2023/08/18 02:19:05;;;;;;;8.90;5.30;;;22.40;76.20;;;;;;5025794;28;20459;-77
2023/08/18 02:21:33;;;;;;;11.60;5.60;;;22.40;76.20;;;;;;5022596;28;20709;-77
2023/08/18 02:24:01;;;;;;;10.17;6.17;;;22.40;76.20;;;;;;5024496;28;20487;-79
2023/08/18 02:26:28;;;;;;;8.80;5.80;;;22.30;76.00;;;;;;5024595;28;20451;-78
2023/08/18 02:28:56;;;;;;;11.30;5.43;;;22.30;76.20;;;;;;5026483;28;20468;-77
2023/08/18 02:31:26;;;;;;;9.00;6.27;;;22.20;76.20;;;;;;5011486;28;20480;-78
2023/08/18 02:33:54;;;;;;;11.00;6.63;;;22.10;76.20;;;;;;5006330;28;20457;-77
2023/08/18 02:36:22;;;;;;;14.00;6.67;;;22.10;76.40;;;;;;5008569;28;20463;-78
2023/08/18 02:38:53;;;;;;;12.40;5.80;;;22.00;76.50;;;;;;5007304;28;20545;-78
2023/08/18 02:41:21;;;;;;;11.07;6.40;;;22.00;76.60;;;;;;5001765;28;20455;-77
2023/08/18 02:43:49;;;;;;;10.03;6.40;;;22.00;76.70;;;;;;5004015;28;20481;-77
2023/08/18 02:46:19;;;;;;;9.27;5.63;;;21.90;76.70;;;;;;5003308;28;20456;-77
2023/08/18 02:48:49;;;;;;;10.20;6.40;;;21.90;76.80;;;;;;5001665;28;20528;-78
2023/08/18 02:51:17;;;;;;;10.10;6.20;;;21.90;76.80;;;;;;5002204;28;20501;-78
2023/08/18 02:53:48;;;;;;;8.97;6.40;;;21.90;76.80;;;;;;5004818;28;21042;-78
2023/08/18 02:56:16;;;;;;;10.93;6.60;;;21.90;76.80;;;;;;5006635;28;20564;-78
2023/08/18 02:58:44;;;;;;;10.13;5.97;;;21.80;76.70;;;;;;5004520;28;20460;-78
2023/08/18 03:01:12;;;;;;;11.53;6.07;;;21.70;76.80;;;;;;5007146;28;21100;-78
2023/08/18 03:03:40;;;;;;;11.13;6.47;;;21.70;77.00;;;;;;5025471;28;20660;-77
2023/08/18 03:06:10;;;;;;;13.33;7.00;;;21.70;77.00;;;;;;5018442;28;20461;-77
2023/08/18 03:08:39;;;;;;;8.70;6.70;;;21.60;77.10;;;;;;5028522;28;20547;-79
2023/08/18 03:11:08;;;;;;;9.00;6.50;;;21.60;77.20;;;;;;5026514;28;20456;-78
2023/08/18 03:13:36;;;;;;;11.13;6.40;;;21.70;77.20;;;;;;5020366;28;20958;-77
2023/08/18 03:16:06;;;;;;;11.20;7.17;;;21.70;77.30;;;;;;5015601;28;20495;-77
2023/08/18 03:18:35;;;;;;;9.73;6.67;;;21.70;77.40;;;;;;5020124;28;20460;-77
2023/08/18 03:21:04;;;;;;;10.60;7.10;;;21.70;77.60;;;;;;5018816;28;20467;-77
2023/08/18 03:23:34;;;;;;;11.80;6.80;;;21.70;77.60;;;;;;5016184;28;20479;-76
2023/08/18 03:26:03;;;;;;;10.67;6.20;;;21.70;77.80;;;;;;5021353;28;20456;-78
2023/08/18 03:28:35;;;;;;;11.73;7.47;;;21.70;77.90;;;;;;5022405;28;20921;-78
2023/08/18 03:31:05;;;;;;;10.60;7.23;;;21.80;77.90;;;;;;5022788;28;20476;-78
2023/08/18 03:33:35;;;;;;;10.10;6.90;;;21.80;77.90;;;;;;5023908;28;20455;-78
2023/08/18 03:36:06;;;;;;;11.40;7.10;;;21.80;77.90;;;;;;5020596;28;20546;-79
2023/08/18 03:38:36;;;;;;;10.37;7.03;;;21.70;77.90;;;;;;5015990;28;21474;-78
2023/08/18 03:41:05;;;;;;;8.43;6.00;;;21.70;78.00;;;;;;5024324;28;20464;-77
2023/08/18 03:43:34;;;;;;;14.90;7.70;;;21.60;78.40;;;;;;5029224;28;20553;-77
2023/08/18 03:46:08;;;;;;;10.03;6.80;;;21.50;78.60;;;;;;5025581;28;20597;-77
2023/08/18 03:48:36;;;;;;;11.27;7.57;;;21.50;78.70;;;;;;5049828;28;20451;-78
2023/08/18 03:51:05;;;;;;;10.10;7.10;;;21.50;78.80;;;;;;5020496;28;20970;-79
2023/08/18 03:53:33;;;;;;;10.53;6.97;;;21.50;78.80;;;;;;5024015;28;20578;-77
2023/08/18 03:56:02;;;;;;;11.80;7.27;;;21.50;78.70;;;;;;5026612;28;20573;-78
2023/08/18 03:58:30;;;;;;;11.07;7.37;;;21.40;78.60;;;;;;5022880;28;20464;-78
2023/08/18 04:01:03;;;;;;;10.40;6.80;;;21.40;78.60;;;;;;5022173;28;20570;-76
2023/08/18 04:03:31;;;;;;;11.10;7.20;;;21.40;78.80;;;;;;5019505;28;20488;-77
2023/08/18 04:05:59;;;;;;;10.10;6.80;;;21.40;78.80;;;;;;5017896;28;20463;-77
2023/08/18 04:08:27;;;;;;;11.80;7.40;;;21.40;78.80;;;;;;5022380;28;20975;-77
2023/08/18 04:10:55;;;;;;;11.20;7.70;;;21.40;78.70;;;;;;5020233;28;20457;-77
2023/08/18 04:13:24;;;;;;;10.03;7.17;;;21.30;78.70;;;;;;5022671;28;20650;-77
2023/08/18 04:15:52;;;;;;;12.97;7.73;;;21.20;78.90;;;;;;5022026;28;20456;-78
2023/08/18 04:18:21;;;;;;;10.07;7.03;;;21.20;79.10;;;;;;5023803;28;20787;-77
2023/08/18 04:20:49;;;;;;;12.57;7.67;;;21.20;79.20;;;;;;5024388;28;20538;-77
2023/08/18 04:23:17;;;;;;;9.90;6.80;;;21.20;79.40;;;;;;5025904;28;20478;-78
2023/08/18 04:25:46;;;;;;;11.87;7.57;;;21.20;79.40;;;;;;5026545;28;20994;-77
2023/08/18 04:28:15;;;;;;;11.67;7.50;;;21.30;79.40;;;;;;5023978;28;20468;-77
2023/08/18 04:30:46;;;;;;;11.00;7.23;;;21.30;79.40;;;;;;5019139;28;20531;-77
2023/08/18 04:33:21;;;;;;;10.00;6.70;;;21.30;79.40;;;;;;5021795;28;20472;-77
2023/08/18 04:35:49;;;;;;;11.77;6.67;;;21.30;79.30;;;;;;5025985;28;20472;-76
2023/08/18 04:38:18;;;;;;;10.30;7.03;;;21.40;79.40;;;;;;5021933;28;20460;-78
2023/08/18 04:40:56;;;;;;;12.23;6.80;;;21.40;79.20;;;;;;5027968;28;20471;-77
2023/08/18 04:43:24;;;;;;;11.57;7.17;;;21.40;79.10;;;;;;5037573;28;20834;-77
2023/08/18 04:45:53;;;;;;;13.47;7.93;;;21.40;79.10;;;;;;5018465;28;20521;-78
2023/08/18 04:48:22;;;;;;;14.63;7.70;;;21.40;79.10;;;;;;5020813;28;20464;-78
2023/08/18 04:50:51;;;;;;;9.83;7.07;;;21.40;79.10;;;;;;5039865;28;20506;-76
2023/08/18 04:53:19;;;;;;;10.40;7.73;;;21.30;79.10;;;;;;5024315;28;20466;-79
2023/08/18 04:55:47;;;;;;;12.23;7.90;;;21.30;79.20;;;;;;5026081;28;20491;-77
2023/08/18 04:58:15;;;;;;;9.57;6.67;;;21.30;79.30;;;;;;5028220;28;20472;-78
2023/08/18 05:00:43;;;;;;;14.37;7.17;;;21.30;79.30;;;;;;5027980;28;20587;-78
2023/08/18 05:03:13;;;;;;;11.37;6.87;;;21.30;79.30;;;;;;5025311;28;20564;-78
2023/08/18 05:05:59;;;;;;;11.00;7.23;;;21.30;79.40;;;;;;5026418;28;20486;-78
2023/08/18 05:08:27;;;;;;;16.53;8.00;;;21.40;79.50;;;;;;5022116;28;20462;-78
2023/08/18 05:10:58;;;;;;;9.20;6.33;;;21.50;79.50;;;;;;5021682;28;20450;-77
2023/08/18 05:13:26;;;;;;;11.73;7.07;;;21.60;79.40;;;;;;5022235;28;20837;-78
2023/08/18 05:15:54;;;;;;;10.40;6.97;;;21.90;79.30;;;;;;5022805;28;20464;-78
2023/08/18 05:18:23;;;;;;;11.40;6.67;;;22.10;78.70;;;;;;5025783;28;20459;-77
2023/08/18 05:20:51;;;;;;;11.50;6.70;;;22.20;78.30;;;;;;5023993;28;20475;-77
2023/08/18 05:23:19;;;;;;;14.57;7.40;;;22.30;78.30;;;;;;5029840;28;20465;-78
2023/08/18 05:25:54;;;;;;;12.10;6.47;;;22.40;78.60;;;;;;5025303;28;20479;-79
2023/08/18 05:28:23;;;;;;;15.63;6.93;;;22.80;78.70;;;;;;5027564;28;20463;-78
2023/08/18 05:30:52;;;;;;;15.53;6.60;;;23.40;78.20;;;;;;5027270;28;20566;-77
2023/08/18 05:33:20;;;;;;;9.67;5.90;;;23.90;77.40;;;;;;5025241;28;20459;-77
2023/08/18 05:35:50;;;;;;;10.83;5.70;;;24.40;76.80;;;;;;5026890;28;20551;-78
2023/08/18 05:38:18;;;;;;;13.87;5.27;;;25.10;76.10;;;;;;5021912;28;20459;-79
2023/08/18 05:40:47;;;;;;;11.43;6.10;;;25.80;75.40;;;;;;5025782;28;20459;-78
2023/08/18 05:43:18;;;;;;;14.30;5.77;;;26.60;73.80;;;;;;5023522;28;20510;-77
2023/08/18 05:45:48;;;;;;;10.40;5.90;;;27.20;72.00;;;;;;5014000;28;20475;-78
2023/08/18 05:48:16;;;;;;;8.47;5.37;;;27.70;70.80;;;;;;5026195;28;20534;-77
2023/08/18 05:50:44;;;;;;;12.20;5.27;;;28.00;69.90;;;;;;5026771;28;20459;-78
2023/08/18 05:53:13;;;;;;;7.73;5.47;;;28.40;69.00;;;;;;5026609;28;20451;-78
2023/08/18 05:55:41;;;;;;;8.97;5.37;;;28.70;67.40;;;;;;5021877;28;21334;-78
2023/08/18 05:58:09;;;;;;;9.63;5.33;;;28.80;66.60;;;;;;5020041;28;20739;-77
2023/08/18 06:00:37;;;;;;;8.77;5.70;;;28.50;65.50;;;;;;5023604;28;20520;-78
2023/08/18 06:03:05;;;;;;;8.40;5.30;;;27.80;65.30;;;;;;5022437;28;20474;-78
2023/08/18 06:05:35;;;;;;;9.77;5.23;;;26.80;66.00;;;;;;5017530;28;20826;-79
2023/08/18 06:08:03;;;;;;;10.70;6.33;;;26.00;67.10;;;;;;5018329;28;21000;-79
2023/08/18 06:10:32;;;;;;;9.90;6.47;;;25.20;67.90;;;;;;5030978;28;20456;-79
2023/08/18 06:13:00;;;;;;;9.80;5.80;;;24.50;69.00;;;;;;5028699;28;20450;-78
2023/08/18 06:15:29;;;;;;;10.37;6.23;;;24.00;70.00;;;;;;5022722;28;20455;-78
2023/08/18 06:17:57;;;;;;;9.97;6.03;;;23.60;70.90;;;;;;5025097;28;20443;-78
2023/08/18 06:20:25;;;;;;;10.50;5.90;;;23.40;71.70;;;;;;5023383;28;20552;-78
2023/08/18 06:22:53;;;;;;;8.80;6.80;;;23.20;72.30;;;;;;5033368;28;20542;-77
2023/08/18 06:25:21;;;;;;;11.13;5.37;;;23.00;72.80;;;;;;5020806;28;20501;-78
2023/08/18 06:27:51;;;;;;;10.33;5.73;;;23.00;73.30;;;;;;5027733;28;20460;-79
2023/08/18 06:30:19;;;;;;;9.33;6.07;;;22.90;73.80;;;;;;5019540;28;20448;-78
2023/08/18 06:32:47;;;;;;;10.00;6.83;;;22.90;74.20;;;;;;5027002;28;20466;-78
2023/08/18 06:35:15;;;;;;;13.87;6.07;;;22.80;74.50;;;;;;5021391;28;20949;-75
2023/08/18 06:37:43;;;;;;;8.87;6.40;;;22.80;74.90;;;;;;5025803;28;20454;-78
2023/08/18 06:40:12;;;;;;;10.30;6.27;;;22.80;75.20;;;;;;5018281;28;20551;-78
2023/08/18 06:42:40;;;;;;;8.70;5.30;;;22.70;75.50;;;;;;5020217;28;20467;-77
2023/08/18 06:45:10;;;;;;;14.10;6.13;;;22.70;75.60;;;;;;5019328;28;20467;-79
2023/08/18 06:47:38;;;;;;;10.67;6.37;;;22.80;75.90;;;;;;5022280;28;20558;-77
2023/08/18 06:50:09;;;;;;;11.70;6.03;;;22.80;76.00;;;;;;5019975;28;20530;-78
2023/08/18 06:52:37;;;;;;;10.00;5.67;;;22.80;76.20;;;;;;5023768;28;20464;-77
2023/08/18 06:55:13;;;;;;;8.63;5.17;;;22.80;76.30;;;;;;5030251;28;20460;-78
2023/08/18 06:57:46;;;;;;;8.57;5.30;;;22.80;76.60;;;;;;5017688;28;20536;-77
2023/08/18 07:00:18;;;;;;;10.00;6.03;;;22.90;76.70;;;;;;5018881;28;20455;-77
2023/08/18 07:02:49;;;;;;;9.57;5.27;;;22.90;76.80;;;;;;5017439;28;21013;-78
2023/08/18 07:05:18;;;;;;;12.60;5.10;;;23.00;76.90;;;;;;5021215;28;20484;-78
2023/08/18 07:07:46;;;;;;;7.90;5.23;;;23.10;76.80;;;;;;5026352;28;21333;-78
2023/08/18 07:10:14;;;;;;;11.23;5.63;;;23.10;76.80;;;;;;5023011;28;20459;-77
2023/08/18 07:12:42;;;;;;;11.30;4.93;;;23.10;76.90;;;;;;5018950;28;20889;-77
2023/08/18 07:15:11;;;;;;;8.90;5.47;;;23.20;76.90;;;;;;5043912;28;20448;-77
2023/08/18 07:17:40;;;;;;;11.03;6.20;;;23.20;76.90;;;;;;5025992;28;20581;-79
2023/08/18 07:20:12;;;;;;;9.63;5.50;;;23.30;77.00;;;;;;5024755;28;20559;-78
2023/08/18 07:22:40;;;;;;;10.73;5.37;;;23.30;76.90;;;;;;5024543;28;20459;-77
2023/08/18 07:25:10;;;;;;;13.93;5.67;;;23.40;76.90;;;;;;5024659;28;20471;-79
2023/08/18 07:27:39;;;;;;;8.73;5.50;;;23.40;76.80;;;;;;5024095;28;20447;-77
2023/08/18 07:30:08;;;;;;;7.90;5.00;;;23.40;76.80;;;;;;5023048;28;20454;-77
2023/08/18 07:32:41;;;;;;;10.70;5.10;;;23.50;76.60;;;;;;5023875;28;21129;-78
2023/08/18 07:35:10;;;;;;;8.07;4.83;;;23.60;76.50;;;;;;5021728;28;20460;-77
2023/08/18 07:37:38;;;;;;;10.53;5.33;;;23.60;76.50;;;;;;5028656;28;20558;-80
2023/08/18 07:40:10;;;;;;;8.83;4.63;;;23.60;76.40;;;;;;5026551;28;20473;-79
2023/08/18 07:42:39;;;;;;;6.87;4.00;;;23.70;76.30;;;;;;5023246;28;20518;-78
2023/08/18 07:45:08;;;;;;;8.80;4.77;;;23.70;76.20;;;;;;5019468;28;20469;-78
2023/08/18 07:47:37;;;;;;;7.40;4.60;;;23.80;76.10;;;;;;5023146;28;20543;-78
2023/08/18 07:50:08;;;;;;;8.30;4.20;;;23.80;75.90;;;;;;5024685;28;20448;-77
2023/08/18 07:52:36;;;;;;;7.90;4.57;;;23.90;75.70;;;;;;5021809;28;20981;-78
2023/08/18 07:55:05;;;;;;;9.67;4.10;;;24.00;75.50;;;;;;5027573;28;20493;-77
2023/08/18 07:57:33;;;;;;;8.87;5.07;;;24.00;75.30;;;;;;5019632;28;20477;-78
2023/08/18 08:00:05;;;;;;;7.90;4.30;;;24.20;75.20;;;;;;5022112;28;20448;-77
2023/08/18 08:02:39;;;;;;;7.23;4.33;;;24.20;74.90;;;;;;5022170;28;20479;-78
2023/08/18 08:05:10;;;;;;;9.57;4.73;;;24.30;74.80;;;;;;5025465;28;20456;-78
2023/08/18 08:07:38;;;;;;;7.03;3.77;;;24.30;74.60;;;;;;5027633;28;20490;-78
2023/08/18 08:10:07;;;;;;;6.97;4.10;;;24.40;74.40;;;;;;5025673;28;20542;-78
2023/08/18 08:12:37;;;;;;;7.07;3.50;;;24.40;74.20;;;;;;5025326;28;20489;-79
2023/08/18 08:15:07;;;;;;;7.60;4.20;;;24.50;74.10;;;;;;5023605;28;20467;-79
2023/08/18 08:17:35;;;;;;;8.43;4.37;;;24.50;74.00;;;;;;5024753;28;20482;-76
2023/08/18 08:20:07;;;;;;;7.77;4.30;;;24.60;73.90;;;;;;5027925;28;20455;-77
2023/08/18 08:22:37;;;;;;;6.10;3.47;;;24.70;73.80;;;;;;5026290;28;20835;-79
2023/08/18 08:25:10;;;;;;;7.57;3.90;;;24.70;73.70;;;;;;5021987;28;20435;-80
2023/08/18 08:27:38;;;;;;;8.20;3.93;;;24.80;73.50;;;;;;5028113;28;20451;-79
2023/08/18 08:30:09;;;;;;;8.03;4.37;;;24.80;73.40;;;;;;5022770;28;20456;-79
2023/08/18 08:32:43;;;;;;;6.53;3.80;;;24.80;73.20;;;;;;5028590;28;20452;-79
2023/08/18 08:35:12;;;;;;;8.40;3.50;;;24.90;73.00;;;;;;5023013;28;20459;-80
2023/08/18 08:37:42;;;;;;;7.77;4.30;;;24.90;72.70;;;;;;5025723;28;20462;-79
2023/08/18 08:40:17;;;;;;;7.53;3.83;;;25.00;72.50;;;;;;5029509;28;20483;-80
2023/08/18 08:42:45;;;;;;;8.90;3.83;;;25.00;72.50;;;;;;5027243;28;20483;-79
2023/08/18 08:45:13;;;;;;;7.07;3.63;;;25.10;72.30;;;;;;5027015;28;20472;-79
2023/08/18 08:47:43;;;;;;;7.73;3.63;;;25.10;72.00;;;;;;5024560;28;20478;-79
2023/08/18 08:50:16;;;;;;;6.80;4.00;;;25.10;72.00;;;;;;5022403;28;20524;-79
2023/08/18 08:52:49;;;;;;;6.97;3.60;;;25.20;71.70;;;;;;5024446;28;20478;-80
2023/08/18 08:55:21;;;;;;;6.27;3.70;;;25.20;71.70;;;;;;5029548;28;20513;-78
2023/08/18 08:57:49;;;;;;;7.00;3.50;;;25.30;71.60;;;;;;5022460;28;20456;-79
2023/08/18 09:00:19;;;;;;;7.63;3.57;;;25.30;71.40;;;;;;5023789;28;20502;-79
2023/08/18 09:02:47;;;;;;;8.40;3.83;;;25.40;71.20;;;;;;5027870;28;20898;-78
2023/08/18 09:05:15;;;;;;;8.40;4.00;;;25.50;71.10;;;;;;5025277;28;20471;-79
2023/08/18 09:07:45;;;;;;;8.47;3.87;;;25.50;71.00;;;;;;5030757;28;20490;-80
2023/08/18 09:10:13;;;;;;;7.73;4.07;;;25.50;71.00;;;;;;5026558;28;20459;-80
2023/08/18 09:12:43;;;;;;;7.70;3.70;;;25.60;70.80;;;;;;5032586;28;22878;-78
2023/08/18 09:15:12;;;;;;;7.03;3.43;;;25.60;70.80;;;;;;5026838;28;20539;-79
2023/08/18 09:17:44;;;;;;;9.03;4.33;;;25.70;70.70;;;;;;5024097;28;20490;-79
2023/08/18 09:20:14;;;;;;;8.50;3.50;;;25.70;70.50;;;;;;5021064;28;20463;-79
2023/08/18 09:22:42;;;;;;;8.77;3.70;;;25.80;70.50;;;;;;5022745;28;20545;-78
2023/08/18 09:25:14;;;;;;;9.23;3.67;;;25.80;70.50;;;;;;5028097;28;20451;-79
2023/08/18 09:27:43;;;;;;;7.87;3.83;;;25.90;70.20;;;;;;5022634;28;20503;-78
2023/08/18 09:30:12;;;;;;;7.47;3.53;;;26.00;70.10;;;;;;5019653;28;20492;-79
2023/08/18 09:32:41;;;;;;;10.00;3.60;;;26.00;70.00;;;;;;5042735;28;20454;-80
2023/08/18 09:35:12;;;;;;;8.00;3.30;;;26.00;69.90;;;;;;5023570;28;20449;-80
2023/08/18 09:37:40;;;;;;;7.97;4.03;;;26.10;69.90;;;;;;5029902;28;20446;-80
2023/08/18 09:40:09;;;;;;;9.93;3.97;;;26.20;69.90;;;;;;5025372;28;20467;-80
2023/08/18 09:42:40;;;;;;;6.50;3.80;;;26.20;69.90;;;;;;5029998;28;20468;-79
2023/08/18 09:45:09;;;;;;;7.57;3.80;;;26.20;70.00;;;;;;5019972;28;20484;-79
2023/08/18 09:47:42;;;;;;;6.60;3.63;;;26.20;70.00;;;;;;5027550;28;21013;-79
2023/08/18 09:50:11;;;;;;;7.10;3.40;;;26.30;69.80;;;;;;5028172;28;20482;-78
2023/08/18 09:52:42;;;;;;;6.57;3.50;;;26.30;69.70;;;;;;5027948;28;20569;-79
2023/08/18 09:55:12;;;;;;;7.03;3.60;;;26.40;69.60;;;;;;5021432;28;20459;-79
2023/08/18 09:57:50;;;;;;;8.37;4.17;;;26.40;69.60;;;;;;5026368;28;20447;-79
2023/08/18 10:00:20;;;;;;;7.87;4.00;;;26.50;69.50;;;;;;5023144;28;20473;-79
2023/08/18 10:02:52;;;;;;;7.77;3.80;;;26.50;69.40;;;;;;5025409;28;20509;-78
2023/08/18 10:05:21;;;;;;;6.80;2.90;;;26.60;69.40;;;;;;5025749;28;20568;-79
2023/08/18 10:07:51;;;;;;;8.37;3.27;;;26.60;69.00;;;;;;5025708;28;20472;-78
2023/08/18 10:10:22;;;;;;;6.80;3.13;;;26.70;68.50;;;;;;5028443;28;20451;-79
2023/08/18 10:12:52;;;;;;;6.50;3.43;;;26.80;68.40;;;;;;5030380;28;20545;-80
2023/08/18 10:15:21;;;;;;;6.60;3.10;;;26.90;68.20;;;;;;5021328;28;20471;-79
2023/08/18 10:17:49;;;;;;;6.27;3.30;;;27.00;68.00;;;;;;5021477;28;20460;-78
2023/08/18 10:20:18;;;;;;;6.63;3.20;;;27.00;67.70;;;;;;5023867;28;20462;-78
2023/08/18 10:22:46;;;;;;;6.03;3.33;;;27.10;67.40;;;;;;5043781;28;20457;-79
2023/08/18 10:25:24;;;;;;;6.77;3.10;;;27.10;67.20;;;;;;5023927;28;20550;-79
2023/08/18 10:27:54;;;;;;;7.57;3.37;;;27.20;66.80;;;;;;5026777;28;21068;-79
2023/08/18 10:30:28;;;;;;;7.73;3.07;;;27.20;66.60;;;;;;5020467;28;20470;-79
2023/08/18 10:33:03;;;;;;;7.93;2.90;;;27.30;66.30;;;;;;5023207;28;20463;-80
2023/08/18 10:43:42;;;;;;;6.63;2.77;;;27.50;65.60;;;;;;5045027;28;20509;-79
2023/08/18 10:46:12;;;;;;;8.73;2.70;;;27.50;65.60;;;;;;5026898;28;20455;-78
2023/08/18 10:48:43;;;;;;;8.83;3.60;;;27.60;65.30;;;;;;5025565;28;20483;-78
2023/08/18 10:51:12;;;;;;;5.30;2.60;;;27.60;65.20;;;;;;5023732;28;20443;-79
2023/08/18 10:53:40;;;;;;;7.17;2.50;;;27.70;64.80;;;;;;5027180;28;20462;-78
2023/08/18 10:56:08;;;;;;;5.90;2.50;;;27.70;64.30;;;;;;5022996;28;20457;-79
2023/08/18 10:58:38;;;;;;;6.47;2.97;;;27.80;64.10;;;;;;5018843;28;21067;-78
2023/08/18 11:01:08;;;;;;;9.00;2.40;;;27.90;63.70;;;;;;5018546;28;20586;-80
2023/08/18 11:03:36;;;;;;;6.60;2.10;;;28.00;63.30;;;;;;5022886;28;20467;-79
2023/08/18 11:06:05;;;;;;;6.70;2.60;;;28.10;62.80;;;;;;5017606;28;20486;-78
2023/08/18 11:08:33;;;;;;;11.13;2.40;;;28.20;62.60;;;;;;5022282;28;20495;-78
2023/08/18 11:11:04;;;;;;;6.93;2.33;;;28.20;62.40;;;;;;5019181;28;20459;-78
2023/08/18 11:13:32;;;;;;;8.63;2.63;;;28.30;62.00;;;;;;5031217;28;20538;-79
2023/08/18 11:20:26;;;;;;;6.37;2.10;;;28.40;61.10;;;;;;5018413;28;20528;-79
2023/08/18 11:22:57;;;;;;;7.17;1.93;;;28.50;61.00;;;;;;5025271;28;20491;-80
2023/08/18 11:25:26;;;;;;;7.07;2.83;;;28.60;61.00;;;;;;5023909;28;20518;-78
2023/08/18 11:27:54;;;;;;;6.80;2.83;;;28.60;60.70;;;;;;5021865;28;20480;-77
2023/08/18 11:30:22;;;;;;;4.97;2.33;;;28.70;60.70;;;;;;5023947;28;20463;-78
2023/08/18 11:32:53;;;;;;;7.43;2.10;;;28.70;60.80;;;;;;5025703;28;20674;-79
2023/08/18 11:35:22;;;;;;;9.03;2.20;;;28.70;60.80;;;;;;5026591;28;21032;-79
2023/08/18 11:37:56;;;;;;;6.93;2.87;;;28.70;60.80;;;;;;5022189;28;20455;-78
2023/08/18 11:40:24;;;;;;;6.70;2.50;;;28.80;60.60;;;;;;5021322;28;20542;-78
2023/08/18 11:42:54;;;;;;;7.43;2.33;;;28.90;60.50;;;;;;5018693;28;20541;-79
2023/08/18 11:45:25;;;;;;;11.60;2.70;;;28.90;60.20;;;;;;5025697;28;20460;-79
2023/08/18 11:48:00;;;;;;;6.60;2.43;;;29.00;60.20;;;;;;5022764;28;20498;-81
2023/08/18 11:50:33;;;;;;;6.80;2.00;;;29.00;60.20;;;;;;5026744;28;20451;-77
2023/08/18 11:53:03;;;;;;;5.87;2.03;;;29.10;60.20;;;;;;5024181;28;20460;-80
2023/08/18 11:55:34;;;;;;;8.40;2.60;;;29.10;60.00;;;;;;5027821;28;20873;-80
2023/08/18 11:58:07;;;;;;;6.80;2.17;;;29.10;60.00;;;;;;5034072;28;20459;-79
2023/08/18 12:00:37;;;;;;;8.80;2.43;;;29.20;59.70;;;;;;5026960;28;20933;-79
2023/08/18 12:03:07;;;;;;;6.40;2.60;;;29.20;59.60;;;;;;5026825;28;20450;-79
2023/08/18 12:05:38;;;;;;;7.93;2.60;;;29.20;59.40;;;;;;5028353;28;20965;-78
2023/08/18 12:08:10;;;;;;;11.50;2.50;;;29.30;59.10;;;;;;5016713;28;20482;-78
2023/08/18 12:10:40;;;;;;;5.63;2.30;;;29.30;59.00;;;;;;5021305;28;20509;-78
2023/08/18 12:13:08;;;;;;;5.83;2.40;;;29.40;58.90;;;;;;5025456;28;20546;-78
2023/08/18 12:15:36;;;;;;;5.60;2.47;;;29.40;58.80;;;;;;5025657;28;21487;-78
2023/08/18 12:18:06;;;;;;;5.93;2.47;;;29.40;58.90;;;;;;5027611;28;20970;-78
2023/08/18 12:20:35;;;;;;;6.53;2.33;;;29.40;58.70;;;;;;5022926;28;20559;-78
2023/08/18 12:23:04;;;;;;;5.93;2.10;;;29.50;58.60;;;;;;5027649;28;20482;-79
2023/08/18 12:25:33;;;;;;;6.07;2.20;;;29.50;58.50;;;;;;5022476;28;21473;-80
2023/08/18 12:28:03;;;;;;;7.83;2.43;;;29.50;58.70;;;;;;5021585;28;20516;-78
2023/08/18 12:30:32;;;;;;;10.17;2.20;;;29.60;58.60;;;;;;5021446;28;20476;-80
2023/08/18 12:32:59;;;;;;;4.80;2.30;;;29.60;58.70;;;;;;5041267;28;20458;-78
2023/08/18 12:35:28;;;;;;;8.90;2.77;;;29.60;58.50;;;;;;5027562;28;20806;-79
2023/08/18 12:37:56;;;;;;;7.53;2.20;;;29.60;58.50;;;;;;5019661;28;20551;-78
2023/08/18 12:44:32;;;;;;;6.27;2.40;;;29.70;58.10;;;;;;5025323;28;20566;-80
2023/08/18 12:47:05;;;;;;;6.17;2.53;;;29.70;58.60;;;;;;5022353;28;20550;-79
2023/08/18 12:49:33;;;;;;;7.60;2.23;;;29.70;58.60;;;;;;5030216;28;20479;-79
2023/08/18 12:52:01;;;;;;;6.40;2.70;;;29.70;58.30;;;;;;5026436;28;21645;-79
2023/08/18 12:54:29;;;;;;;7.13;2.60;;;29.80;58.10;;;;;;5020759;28;20472;-79
2023/08/18 12:56:57;;;;;;;6.00;2.43;;;29.80;58.00;;;;;;5027011;28;20477;-79
2023/08/18 12:59:25;;;;;;;11.47;2.50;;;29.80;57.90;;;;;;5024269;28;20455;-80
2023/08/18 13:01:53;;;;;;;7.20;2.53;;;29.90;57.90;;;;;;5026860;28;20490;-79
2023/08/18 13:04:22;;;;;;;8.37;2.23;;;29.90;57.80;;;;;;5023865;28;20456;-78
2023/08/18 13:06:50;;;;;;;5.90;2.13;;;29.90;58.00;;;;;;5028002;28;20949;-78
2023/08/18 13:09:19;;;;;;;9.13;2.77;;;29.90;57.90;;;;;;5028733;28;20471;-79
2023/08/18 13:11:47;;;;;;;8.30;2.90;;;29.90;57.60;;;;;;5026493;28;20554;-78